sensor_id;sensor_type;location;lat;lon;timestamp;temperature;humidity
1283;DHT22;634;48.810;9.148;2022-07-09T00:00:09;17.50;62.00
1283;DHT22;634;48.810;9.148;2022-07-09T00:02:38;17.50;62.00
1283;DHT22;634;48.810;9.148;2022-07-09T00:05:11;17.10;63.00
1283;DHT22;634;48.810;9.148;2022-07-09T00:07:40;17.00;63.30
1283;DHT22;634;48.810;9.148;2022-07-09T00:10:15;17.00;64.00
1283;DHT22;634;48.810;9.148;2022-07-09T00:12:46;17.20;63.50
1283;DHT22;634;48.810;9.148;2022-07-09T00:15:16;17.10;63.80
1283;DHT22;634;48.810;9.148;2022-07-09T00:17:48;17.10;63.40
1283;DHT22;634;48.810;9.148;2022-07-09T00:20:17;16.90;64.10
1283;DHT22;634;48.810;9.148;2022-07-09T00:22:47;16.80;64.90
1283;DHT22;634;48.810;9.148;2022-07-09T00:25:19;16.90;64.50
1283;DHT22;634;48.810;9.148;2022-07-09T00:27:48;16.90;64.60
1283;DHT22;634;48.810;9.148;2022-07-09T00:30:20;17.00;64.30
1283;DHT22;634;48.810;9.148;2022-07-09T00:32:49;17.00;64.70
1283;DHT22;634;48.810;9.148;2022-07-09T00:35:19;16.90;64.60
1283;DHT22;634;48.810;9.148;2022-07-09T00:37:51;16.70;65.40
1283;DHT22;634;48.810;9.148;2022-07-09T00:40:25;16.70;67.20
1283;DHT22;634;48.810;9.148;2022-07-09T00:42:55;16.70;66.00
1283;DHT22;634;48.810;9.148;2022-07-09T00:45:24;16.80;65.90
1283;DHT22;634;48.810;9.148;2022-07-09T00:47:58;17.00;65.30
1283;DHT22;634;48.810;9.148;2022-07-09T00:50:30;16.70;65.90
1283;DHT22;634;48.810;9.148;2022-07-09T00:53:02;16.70;66.20
1283;DHT22;634;48.810;9.148;2022-07-09T00:55:38;16.80;65.80
1283;DHT22;634;48.810;9.148;2022-07-09T00:58:09;16.80;66.20
1283;DHT22;634;48.810;9.148;2022-07-09T01:00:41;16.80;66.70
1283;DHT22;634;48.810;9.148;2022-07-09T01:03:13;16.80;66.90
1283;DHT22;634;48.810;9.148;2022-07-09T01:05:42;16.70;67.30
1283;DHT22;634;48.810;9.148;2022-07-09T01:08:12;16.40;69.20
1283;DHT22;634;48.810;9.148;2022-07-09T01:10:48;16.50;68.60
1283;DHT22;634;48.810;9.148;2022-07-09T01:13:22;16.50;68.60
1283;DHT22;634;48.810;9.148;2022-07-09T01:15:54;16.30;68.70
1283;DHT22;634;48.810;9.148;2022-07-09T01:18:28;16.40;68.40
1283;DHT22;634;48.810;9.148;2022-07-09T01:21:00;16.40;68.80
1283;DHT22;634;48.810;9.148;2022-07-09T01:23:32;16.30;69.00
1283;DHT22;634;48.810;9.148;2022-07-09T01:26:01;16.60;68.40
1283;DHT22;634;48.810;9.148;2022-07-09T01:28:31;16.80;67.10
1283;DHT22;634;48.810;9.148;2022-07-09T01:31:00;16.80;66.80
1283;DHT22;634;48.810;9.148;2022-07-09T01:33:30;16.90;66.80
1283;DHT22;634;48.810;9.148;2022-07-09T01:36:02;17.10;66.20
1283;DHT22;634;48.810;9.148;2022-07-09T01:38:32;17.10;65.80
1283;DHT22;634;48.810;9.148;2022-07-09T01:41:04;17.20;66.20
1283;DHT22;634;48.810;9.148;2022-07-09T01:43:33;16.70;68.90
1283;DHT22;634;48.810;9.148;2022-07-09T01:46:03;16.10;72.30
1283;DHT22;634;48.810;9.148;2022-07-09T01:48:34;15.80;74.20
1283;DHT22;634;48.810;9.148;2022-07-09T01:51:08;15.70;74.60
1283;DHT22;634;48.810;9.148;2022-07-09T01:53:37;16.00;73.00
1283;DHT22;634;48.810;9.148;2022-07-09T01:56:08;16.30;71.60
1283;DHT22;634;48.810;9.148;2022-07-09T01:58:41;16.60;70.20
1283;DHT22;634;48.810;9.148;2022-07-09T02:01:10;16.60;69.10
1283;DHT22;634;48.810;9.148;2022-07-09T02:03:40;16.70;69.40
1283;DHT22;634;48.810;9.148;2022-07-09T02:06:15;16.80;67.70
1283;DHT22;634;48.810;9.148;2022-07-09T02:08:44;16.80;67.60
1283;DHT22;634;48.810;9.148;2022-07-09T02:11:14;16.90;67.40
1283;DHT22;634;48.810;9.148;2022-07-09T02:13:43;16.90;67.30
1283;DHT22;634;48.810;9.148;2022-07-09T02:16:13;16.90;67.60
1283;DHT22;634;48.810;9.148;2022-07-09T02:18:42;16.80;68.20
1283;DHT22;634;48.810;9.148;2022-07-09T02:21:16;16.50;69.90
1283;DHT22;634;48.810;9.148;2022-07-09T02:23:48;16.70;69.80
1283;DHT22;634;48.810;9.148;2022-07-09T02:26:19;16.50;70.60
1283;DHT22;634;48.810;9.148;2022-07-09T02:28:49;16.50;70.90
1283;DHT22;634;48.810;9.148;2022-07-09T02:31:18;16.40;71.00
1283;DHT22;634;48.810;9.148;2022-07-09T02:33:48;16.50;71.30
1283;DHT22;634;48.810;9.148;2022-07-09T02:36:20;16.60;69.60
1283;DHT22;634;48.810;9.148;2022-07-09T02:38:49;16.50;70.00
1283;DHT22;634;48.810;9.148;2022-07-09T02:41:19;16.40;70.90
1283;DHT22;634;48.810;9.148;2022-07-09T02:43:51;15.90;72.20
1283;DHT22;634;48.810;9.148;2022-07-09T02:46:20;15.30;76.00
1283;DHT22;634;48.810;9.148;2022-07-09T02:48:49;15.40;76.60
1283;DHT22;634;48.810;9.148;2022-07-09T02:51:22;15.60;76.00
1283;DHT22;634;48.810;9.148;2022-07-09T02:53:51;15.80;74.80
1283;DHT22;634;48.810;9.148;2022-07-09T02:56:24;15.80;75.80
1283;DHT22;634;48.810;9.148;2022-07-09T02:58:55;16.00;73.80
1283;DHT22;634;48.810;9.148;2022-07-09T03:01:26;16.20;72.30
1283;DHT22;634;48.810;9.148;2022-07-09T03:03:56;16.30;71.90
1283;DHT22;634;48.810;9.148;2022-07-09T03:06:28;16.40;71.60
1283;DHT22;634;48.810;9.148;2022-07-09T03:08:57;16.30;72.40
1283;DHT22;634;48.810;9.148;2022-07-09T03:11:27;16.00;74.30
1283;DHT22;634;48.810;9.148;2022-07-09T03:13:56;15.70;76.20
1283;DHT22;634;48.810;9.148;2022-07-09T03:16:26;15.50;77.70
1283;DHT22;634;48.810;9.148;2022-07-09T03:18:57;15.60;77.50
1283;DHT22;634;48.810;9.148;2022-07-09T03:21:29;15.40;78.30
1283;DHT22;634;48.810;9.148;2022-07-09T03:24:01;15.00;79.90
1283;DHT22;634;48.810;9.148;2022-07-09T03:26:32;15.10;80.90
1283;DHT22;634;48.810;9.148;2022-07-09T03:29:07;15.20;79.90
1283;DHT22;634;48.810;9.148;2022-07-09T03:31:36;15.40;79.00
1283;DHT22;634;48.810;9.148;2022-07-09T03:34:05;15.50;77.90
1283;DHT22;634;48.810;9.148;2022-07-09T03:36:38;15.40;78.30
1283;DHT22;634;48.810;9.148;2022-07-09T03:39:07;15.50;77.90
1283;DHT22;634;48.810;9.148;2022-07-09T03:41:39;15.20;80.20
1283;DHT22;634;48.810;9.148;2022-07-09T03:44:13;15.10;80.80
1283;DHT22;634;48.810;9.148;2022-07-09T03:46:42;14.90;81.90
1283;DHT22;634;48.810;9.148;2022-07-09T03:49:12;15.00;82.50
1283;DHT22;634;48.810;9.148;2022-07-09T03:51:46;15.20;80.80
1283;DHT22;634;48.810;9.148;2022-07-09T03:54:16;15.10;81.80
1283;DHT22;634;48.810;9.148;2022-07-09T03:56:45;15.30;81.50
1283;DHT22;634;48.810;9.148;2022-07-09T03:59:15;15.40;80.00
1283;DHT22;634;48.810;9.148;2022-07-09T04:01:45;15.60;78.80
1283;DHT22;634;48.810;9.148;2022-07-09T04:04:14;15.70;77.70
1283;DHT22;634;48.810;9.148;2022-07-09T04:06:46;15.80;77.50
1283;DHT22;634;48.810;9.148;2022-07-09T04:09:15;15.80;77.50
1283;DHT22;634;48.810;9.148;2022-07-09T04:11:45;15.80;77.50
1283;DHT22;634;48.810;9.148;2022-07-09T04:14:14;15.80;77.70
1283;DHT22;634;48.810;9.148;2022-07-09T04:16:46;15.30;80.00
1283;DHT22;634;48.810;9.148;2022-07-09T04:19:15;15.60;79.50
1283;DHT22;634;48.810;9.148;2022-07-09T04:21:49;15.50;79.60
1283;DHT22;634;48.810;9.148;2022-07-09T04:24:24;15.50;80.40
1283;DHT22;634;48.810;9.148;2022-07-09T04:26:55;15.60;80.40
1283;DHT22;634;48.810;9.148;2022-07-09T04:29:27;15.70;80.10
1283;DHT22;634;48.810;9.148;2022-07-09T04:32:01;15.60;80.40
1283;DHT22;634;48.810;9.148;2022-07-09T04:34:34;15.70;80.70
1283;DHT22;634;48.810;9.148;2022-07-09T04:37:08;15.80;80.10
1283;DHT22;634;48.810;9.148;2022-07-09T04:39:40;15.90;79.80
1283;DHT22;634;48.810;9.148;2022-07-09T04:42:11;16.00;79.60
1283;DHT22;634;48.810;9.148;2022-07-09T04:44:44;16.10;79.10
1283;DHT22;634;48.810;9.148;2022-07-09T04:47:16;16.10;79.00
1283;DHT22;634;48.810;9.148;2022-07-09T04:49:47;16.10;79.60
1283;DHT22;634;48.810;9.148;2022-07-09T04:52:19;16.00;80.10
1283;DHT22;634;48.810;9.148;2022-07-09T04:54:55;15.90;81.20
1283;DHT22;634;48.810;9.148;2022-07-09T04:57:24;15.70;83.20
1283;DHT22;634;48.810;9.148;2022-07-09T04:59:57;15.70;83.70
1283;DHT22;634;48.810;9.148;2022-07-09T05:02:28;15.80;83.50
1283;DHT22;634;48.810;9.148;2022-07-09T05:04:57;15.70;83.70
1283;DHT22;634;48.810;9.148;2022-07-09T05:07:29;15.70;84.80
1283;DHT22;634;48.810;9.148;2022-07-09T05:09:59;15.60;85.90
1283;DHT22;634;48.810;9.148;2022-07-09T05:12:29;15.40;87.50
1283;DHT22;634;48.810;9.148;2022-07-09T05:14:58;15.60;87.00
1283;DHT22;634;48.810;9.148;2022-07-09T05:17:32;15.90;84.80
1283;DHT22;634;48.810;9.148;2022-07-09T05:20:06;16.10;83.80
1283;DHT22;634;48.810;9.148;2022-07-09T05:22:38;16.40;81.40
1283;DHT22;634;48.810;9.148;2022-07-09T05:25:08;16.50;80.20
1283;DHT22;634;48.810;9.148;2022-07-09T05:27:43;16.60;82.00
1283;DHT22;634;48.810;9.148;2022-07-09T05:30:14;16.80;79.60
1283;DHT22;634;48.810;9.148;2022-07-09T05:32:46;17.00;76.80
1283;DHT22;634;48.810;9.148;2022-07-09T05:35:16;17.20;75.70
1283;DHT22;634;48.810;9.148;2022-07-09T05:37:50;17.40;73.70
1283;DHT22;634;48.810;9.148;2022-07-09T05:40:20;17.40;74.10
1283;DHT22;634;48.810;9.148;2022-07-09T05:42:49;17.50;73.60
1283;DHT22;634;48.810;9.148;2022-07-09T05:45:21;17.60;72.70
1283;DHT22;634;48.810;9.148;2022-07-09T05:47:51;17.70;71.60
1283;DHT22;634;48.810;9.148;2022-07-09T05:50:20;17.70;71.60
1283;DHT22;634;48.810;9.148;2022-07-09T05:52:53;17.80;70.20
1283;DHT22;634;48.810;9.148;2022-07-09T05:55:22;17.90;69.90
1283;DHT22;634;48.810;9.148;2022-07-09T05:57:52;18.10;70.90
1283;DHT22;634;48.810;9.148;2022-07-09T06:00:21;18.30;68.50
1283;DHT22;634;48.810;9.148;2022-07-09T06:02:53;18.40;67.30
1283;DHT22;634;48.810;9.148;2022-07-09T06:05:28;18.40;66.90
1283;DHT22;634;48.810;9.148;2022-07-09T06:08:00;18.60;66.30
1283;DHT22;634;48.810;9.148;2022-07-09T06:10:32;18.70;65.80
1283;DHT22;634;48.810;9.148;2022-07-09T06:13:04;18.80;66.20
1283;DHT22;634;48.810;9.148;2022-07-09T06:15:34;19.00;65.90
1283;DHT22;634;48.810;9.148;2022-07-09T06:18:03;19.10;65.80
1283;DHT22;634;48.810;9.148;2022-07-09T06:20:33;19.20;65.80
1283;DHT22;634;48.810;9.148;2022-07-09T06:23:07;19.40;65.60
1283;DHT22;634;48.810;9.148;2022-07-09T06:25:37;19.50;64.40
1283;DHT22;634;48.810;9.148;2022-07-09T06:28:06;19.60;64.10
1283;DHT22;634;48.810;9.148;2022-07-09T06:30:36;19.80;63.30
1283;DHT22;634;48.810;9.148;2022-07-09T06:33:06;20.00;63.70
1283;DHT22;634;48.810;9.148;2022-07-09T06:35:35;20.20;61.60
1283;DHT22;634;48.810;9.148;2022-07-09T06:38:12;20.30;60.60
1283;DHT22;634;48.810;9.148;2022-07-09T06:40:47;20.40;60.20
1283;DHT22;634;48.810;9.148;2022-07-09T06:43:18;20.50;60.00
1283;DHT22;634;48.810;9.148;2022-07-09T06:45:52;20.60;60.20
1283;DHT22;634;48.810;9.148;2022-07-09T06:48:22;20.60;60.10
1283;DHT22;634;48.810;9.148;2022-07-09T06:50:53;20.60;60.00
1283;DHT22;634;48.810;9.148;2022-07-09T06:53:25;20.60;60.30
1283;DHT22;634;48.810;9.148;2022-07-09T06:55:55;20.60;60.00
1283;DHT22;634;48.810;9.148;2022-07-09T06:58:24;20.60;59.70
1283;DHT22;634;48.810;9.148;2022-07-09T07:00:56;20.60;59.40
1283;DHT22;634;48.810;9.148;2022-07-09T07:03:25;20.80;59.00
1283;DHT22;634;48.810;9.148;2022-07-09T07:05:57;20.90;58.30
1283;DHT22;634;48.810;9.148;2022-07-09T07:08:29;21.00;57.50
1283;DHT22;634;48.810;9.148;2022-07-09T07:10:58;21.20;57.20
1283;DHT22;634;48.810;9.148;2022-07-09T07:13:30;21.40;56.70
1283;DHT22;634;48.810;9.148;2022-07-09T07:16:00;21.60;56.20
1283;DHT22;634;48.810;9.148;2022-07-09T07:18:29;21.70;55.50
1283;DHT22;634;48.810;9.148;2022-07-09T07:20:59;21.90;55.60
1283;DHT22;634;48.810;9.148;2022-07-09T07:23:31;22.10;55.60
1283;DHT22;634;48.810;9.148;2022-07-09T07:26:01;22.20;55.70
1283;DHT22;634;48.810;9.148;2022-07-09T07:28:32;22.40;55.10
1283;DHT22;634;48.810;9.148;2022-07-09T07:31:02;22.60;54.70
1283;DHT22;634;48.810;9.148;2022-07-09T07:33:32;22.80;54.00
1283;DHT22;634;48.810;9.148;2022-07-09T07:36:01;22.90;53.20
1283;DHT22;634;48.810;9.148;2022-07-09T07:38:36;23.10;53.50
1283;DHT22;634;48.810;9.148;2022-07-09T07:41:08;23.30;52.80
1283;DHT22;634;48.810;9.148;2022-07-09T07:43:37;23.50;53.10
1283;DHT22;634;48.810;9.148;2022-07-09T07:46:07;23.60;52.70
1283;DHT22;634;48.810;9.148;2022-07-09T07:48:39;23.60;52.40
1283;DHT22;634;48.810;9.148;2022-07-09T07:51:10;23.80;52.30
1283;DHT22;634;48.810;9.148;2022-07-09T07:53:45;23.80;52.30
1283;DHT22;634;48.810;9.148;2022-07-09T07:56:14;24.00;52.80
1283;DHT22;634;48.810;9.148;2022-07-09T07:58:44;24.10;52.20
1283;DHT22;634;48.810;9.148;2022-07-09T08:01:16;24.30;52.30
1283;DHT22;634;48.810;9.148;2022-07-09T08:03:45;24.30;52.20
1283;DHT22;634;48.810;9.148;2022-07-09T08:06:17;24.40;52.20
1283;DHT22;634;48.810;9.148;2022-07-09T08:08:51;24.30;52.20
1283;DHT22;634;48.810;9.148;2022-07-09T08:11:20;24.40;52.10
1283;DHT22;634;48.810;9.148;2022-07-09T08:13:52;24.50;52.00
1283;DHT22;634;48.810;9.148;2022-07-09T08:16:22;24.60;52.00
1283;DHT22;634;48.810;9.148;2022-07-09T08:18:57;24.80;52.50
1283;DHT22;634;48.810;9.148;2022-07-09T08:21:26;24.90;51.70
1283;DHT22;634;48.810;9.148;2022-07-09T08:24:01;25.00;51.10
1283;DHT22;634;48.810;9.148;2022-07-09T08:26:34;25.10;50.40
1283;DHT22;634;48.810;9.148;2022-07-09T08:29:04;25.20;50.40
1283;DHT22;634;48.810;9.148;2022-07-09T08:31:33;25.40;50.10
1283;DHT22;634;48.810;9.148;2022-07-09T08:34:03;25.60;49.50
1283;DHT22;634;48.810;9.148;2022-07-09T08:36:32;25.80;48.90
1283;DHT22;634;48.810;9.148;2022-07-09T08:39:04;26.10;49.10
1283;DHT22;634;48.810;9.148;2022-07-09T08:41:34;26.20;48.20
1283;DHT22;634;48.810;9.148;2022-07-09T08:44:04;26.40;47.40
1283;DHT22;634;48.810;9.148;2022-07-09T08:46:34;26.40;46.90
1283;DHT22;634;48.810;9.148;2022-07-09T08:49:03;26.50;46.70
1283;DHT22;634;48.810;9.148;2022-07-09T08:51:35;26.60;46.80
1283;DHT22;634;48.810;9.148;2022-07-09T08:54:07;26.80;46.60
1283;DHT22;634;48.810;9.148;2022-07-09T08:56:37;27.00;45.60
1283;DHT22;634;48.810;9.148;2022-07-09T08:59:07;26.90;44.80
1283;DHT22;634;48.810;9.148;2022-07-09T09:01:36;26.60;45.30
1283;DHT22;634;48.810;9.148;2022-07-09T09:04:06;26.50;46.40
1283;DHT22;634;48.810;9.148;2022-07-09T09:06:37;26.70;45.50
1283;DHT22;634;48.810;9.148;2022-07-09T09:09:18;26.90;44.30
1283;DHT22;634;48.810;9.148;2022-07-09T09:11:49;27.10;44.50
1283;DHT22;634;48.810;9.148;2022-07-09T09:14:20;26.90;43.70
1283;DHT22;634;48.810;9.148;2022-07-09T09:16:52;27.00;43.80
1283;DHT22;634;48.810;9.148;2022-07-09T09:19:22;27.40;43.30
1283;DHT22;634;48.810;9.148;2022-07-09T09:21:54;27.90;43.30
1283;DHT22;634;48.810;9.148;2022-07-09T09:24:27;28.50;42.20
1283;DHT22;634;48.810;9.148;2022-07-09T09:26:59;28.40;42.50
1283;DHT22;634;48.810;9.148;2022-07-09T09:29:29;28.70;42.40
1283;DHT22;634;48.810;9.148;2022-07-09T09:32:09;28.80;42.20
1283;DHT22;634;48.810;9.148;2022-07-09T09:34:48;29.20;40.80
1283;DHT22;634;48.810;9.148;2022-07-09T09:37:28;29.20;40.30
1283;DHT22;634;48.810;9.148;2022-07-09T09:40:08;29.30;40.20
1283;DHT22;634;48.810;9.148;2022-07-09T09:42:40;29.60;40.40
1283;DHT22;634;48.810;9.148;2022-07-09T09:45:12;29.90;39.30
1283;DHT22;634;48.810;9.148;2022-07-09T09:47:46;29.90;38.70
1283;DHT22;634;48.810;9.148;2022-07-09T09:50:20;29.90;38.70
1283;DHT22;634;48.810;9.148;2022-07-09T09:52:53;30.10;38.20
1283;DHT22;634;48.810;9.148;2022-07-09T09:55:25;30.40;38.30
1283;DHT22;634;48.810;9.148;2022-07-09T09:57:55;30.50;38.30
1283;DHT22;634;48.810;9.148;2022-07-09T10:00:25;30.90;37.20
1283;DHT22;634;48.810;9.148;2022-07-09T10:02:57;31.30;36.80
1283;DHT22;634;48.810;9.148;2022-07-09T10:05:27;32.20;36.00
1283;DHT22;634;48.810;9.148;2022-07-09T10:07:57;32.90;35.30
1283;DHT22;634;48.810;9.148;2022-07-09T10:10:29;33.60;33.70
1283;DHT22;634;48.810;9.148;2022-07-09T10:12:58;33.40;33.30
1283;DHT22;634;48.810;9.148;2022-07-09T10:15:28;32.70;34.60
1283;DHT22;634;48.810;9.148;2022-07-09T10:18:09;32.60;34.40
1283;DHT22;634;48.810;9.148;2022-07-09T10:20:43;32.00;34.70
1283;DHT22;634;48.810;9.148;2022-07-09T10:23:20;31.60;35.40
1283;DHT22;634;48.810;9.148;2022-07-09T10:25:55;31.20;35.60
1283;DHT22;634;48.810;9.148;2022-07-09T10:28:29;30.60;36.00
1283;DHT22;634;48.810;9.148;2022-07-09T10:31:09;30.00;36.50
1283;DHT22;634;48.810;9.148;2022-07-09T10:33:48;29.90;36.60
1283;DHT22;634;48.810;9.148;2022-07-09T10:36:17;30.60;36.20
1283;DHT22;634;48.810;9.148;2022-07-09T10:38:54;31.90;34.90
1283;DHT22;634;48.810;9.148;2022-07-09T10:41:29;33.70;32.00
1283;DHT22;634;48.810;9.148;2022-07-09T10:43:59;34.00;30.90
1283;DHT22;634;48.810;9.148;2022-07-09T10:46:28;33.30;31.50
1283;DHT22;634;48.810;9.148;2022-07-09T10:48:59;32.50;31.90
1283;DHT22;634;48.810;9.148;2022-07-09T10:51:31;32.60;32.40
1283;DHT22;634;48.810;9.148;2022-07-09T10:54:02;34.30;30.90
1283;DHT22;634;48.810;9.148;2022-07-09T10:56:35;35.80;29.20
1283;DHT22;634;48.810;9.148;2022-07-09T10:59:06;35.90;28.60
1283;DHT22;634;48.810;9.148;2022-07-09T11:01:36;35.20;29.40
1283;DHT22;634;48.810;9.148;2022-07-09T11:04:08;34.40;29.50
1283;DHT22;634;48.810;9.148;2022-07-09T11:06:44;33.80;30.30
1283;DHT22;634;48.810;9.148;2022-07-09T11:09:15;33.00;31.80
1283;DHT22;634;48.810;9.148;2022-07-09T11:11:47;32.50;31.80
1283;DHT22;634;48.810;9.148;2022-07-09T11:14:17;31.90;32.50
1283;DHT22;634;48.810;9.148;2022-07-09T11:16:56;31.70;33.20
1283;DHT22;634;48.810;9.148;2022-07-09T11:19:26;31.80;32.40
1283;DHT22;634;48.810;9.148;2022-07-09T11:22:02;31.70;31.80
1283;DHT22;634;48.810;9.148;2022-07-09T11:24:34;31.60;33.10
1283;DHT22;634;48.810;9.148;2022-07-09T11:27:13;31.10;34.70
1283;DHT22;634;48.810;9.148;2022-07-09T11:29:48;30.50;35.40
1283;DHT22;634;48.810;9.148;2022-07-09T11:32:19;30.00;36.40
1283;DHT22;634;48.810;9.148;2022-07-09T11:34:52;29.70;36.60
1283;DHT22;634;48.810;9.148;2022-07-09T11:37:24;29.50;37.30
1283;DHT22;634;48.810;9.148;2022-07-09T11:39:56;29.20;38.20
1283;DHT22;634;48.810;9.148;2022-07-09T11:42:30;29.20;38.30
1283;DHT22;634;48.810;9.148;2022-07-09T11:45:00;29.40;37.70
1283;DHT22;634;48.810;9.148;2022-07-09T11:47:34;29.50;37.50
1283;DHT22;634;48.810;9.148;2022-07-09T11:50:09;29.40;37.50
1283;DHT22;634;48.810;9.148;2022-07-09T11:52:43;29.10;37.90
1283;DHT22;634;48.810;9.148;2022-07-09T11:55:18;29.00;38.20
1283;DHT22;634;48.810;9.148;2022-07-09T11:57:55;28.80;38.60
1283;DHT22;634;48.810;9.148;2022-07-09T12:00:26;28.70;38.70
1283;DHT22;634;48.810;9.148;2022-07-09T12:02:58;28.80;39.20
1283;DHT22;634;48.810;9.148;2022-07-09T12:05:31;29.20;38.40
1283;DHT22;634;48.810;9.148;2022-07-09T12:08:04;29.80;37.50
1283;DHT22;634;48.810;9.148;2022-07-09T12:10:38;30.70;36.50
1283;DHT22;634;48.810;9.148;2022-07-09T12:13:13;32.20;34.40
1283;DHT22;634;48.810;9.148;2022-07-09T12:15:45;33.60;32.30
1283;DHT22;634;48.810;9.148;2022-07-09T12:18:14;34.20;30.80
1283;DHT22;634;48.810;9.148;2022-07-09T12:20:44;33.70;31.10
1283;DHT22;634;48.810;9.148;2022-07-09T12:23:13;33.30;32.40
1283;DHT22;634;48.810;9.148;2022-07-09T12:25:43;32.50;32.80
1283;DHT22;634;48.810;9.148;2022-07-09T12:28:15;31.70;34.40
1283;DHT22;634;48.810;9.148;2022-07-09T12:33:16;30.70;65.20
1283;DHT22;634;48.810;9.148;2022-07-09T12:35:51;30.40;36.70
1283;DHT22;634;48.810;9.148;2022-07-09T12:38:20;30.00;37.10
1283;DHT22;634;48.810;9.148;2022-07-09T12:40:50;29.90;37.40
1283;DHT22;634;48.810;9.148;2022-07-09T12:43:22;30.10;37.50
1283;DHT22;634;48.810;9.148;2022-07-09T12:45:51;31.30;36.40
1283;DHT22;634;48.810;9.148;2022-07-09T12:48:21;32.70;34.10
1283;DHT22;634;48.810;9.148;2022-07-09T12:50:53;34.00;32.20
1283;DHT22;634;48.810;9.148;2022-07-09T12:53:22;34.50;31.50
1283;DHT22;634;48.810;9.148;2022-07-09T12:55:51;34.60;31.90
1283;DHT22;634;48.810;9.148;2022-07-09T12:58:24;35.50;30.10
1283;DHT22;634;48.810;9.148;2022-07-09T13:00:53;37.00;28.50
1283;DHT22;634;48.810;9.148;2022-07-09T13:03:22;37.50;27.80
1283;DHT22;634;48.810;9.148;2022-07-09T13:05:52;37.80;27.30
1283;DHT22;634;48.810;9.148;2022-07-09T13:08:21;37.00;27.90
1283;DHT22;634;48.810;9.148;2022-07-09T13:10:51;36.30;29.40
1283;DHT22;634;48.810;9.148;2022-07-09T13:13:23;35.70;29.70
1283;DHT22;634;48.810;9.148;2022-07-09T13:15:53;35.30;29.90
1283;DHT22;634;48.810;9.148;2022-07-09T13:18:22;34.90;30.40
1283;DHT22;634;48.810;9.148;2022-07-09T13:20:52;34.30;31.70
1283;DHT22;634;48.810;9.148;2022-07-09T13:23:21;33.60;32.10
1283;DHT22;634;48.810;9.148;2022-07-09T13:25:50;34.30;32.10
1283;DHT22;634;48.810;9.148;2022-07-09T13:28:22;34.90;30.70
1283;DHT22;634;48.810;9.148;2022-07-09T13:30:52;34.20;30.50
1283;DHT22;634;48.810;9.148;2022-07-09T13:33:21;33.70;31.20
1283;DHT22;634;48.810;9.148;2022-07-09T13:35:51;33.20;31.70
1283;DHT22;634;48.810;9.148;2022-07-09T13:38:20;32.70;31.80
1283;DHT22;634;48.810;9.148;2022-07-09T13:40:53;32.10;32.60
1283;DHT22;634;48.810;9.148;2022-07-09T13:43:25;31.60;33.50
1283;DHT22;634;48.810;9.148;2022-07-09T13:45:55;31.30;34.10
1283;DHT22;634;48.810;9.148;2022-07-09T13:48:26;31.00;34.50
1283;DHT22;634;48.810;9.148;2022-07-09T13:50:55;31.00;35.00
1283;DHT22;634;48.810;9.148;2022-07-09T13:53:26;31.30;35.10
1283;DHT22;634;48.810;9.148;2022-07-09T13:55:56;31.30;34.20
1283;DHT22;634;48.810;9.148;2022-07-09T13:58:28;31.20;34.40
1283;DHT22;634;48.810;9.148;2022-07-09T14:01:00;31.00;34.50
1283;DHT22;634;48.810;9.148;2022-07-09T14:03:29;30.90;35.40
1283;DHT22;634;48.810;9.148;2022-07-09T14:05:58;30.80;35.70
1283;DHT22;634;48.810;9.148;2022-07-09T14:08:28;30.60;35.60
1283;DHT22;634;48.810;9.148;2022-07-09T14:10:57;30.40;35.70
1283;DHT22;634;48.810;9.148;2022-07-09T14:13:32;30.30;36.10
1283;DHT22;634;48.810;9.148;2022-07-09T14:16:05;30.30;36.70
1283;DHT22;634;48.810;9.148;2022-07-09T14:18:35;30.10;37.00
1283;DHT22;634;48.810;9.148;2022-07-09T14:21:07;30.10;37.00
1283;DHT22;634;48.810;9.148;2022-07-09T14:23:36;30.10;36.80
1283;DHT22;634;48.810;9.148;2022-07-09T14:26:08;30.20;36.70
1283;DHT22;634;48.810;9.148;2022-07-09T14:28:42;30.20;36.70
1283;DHT22;634;48.810;9.148;2022-07-09T14:31:15;30.30;36.60
1283;DHT22;634;48.810;9.148;2022-07-09T14:33:44;30.20;36.80
1283;DHT22;634;48.810;9.148;2022-07-09T14:36:14;30.20;37.20
1283;DHT22;634;48.810;9.148;2022-07-09T14:38:46;30.30;37.40
1283;DHT22;634;48.810;9.148;2022-07-09T14:41:15;30.40;37.40
1283;DHT22;634;48.810;9.148;2022-07-09T14:43:47;30.50;36.80
1283;DHT22;634;48.810;9.148;2022-07-09T14:46:19;30.40;36.40
1283;DHT22;634;48.810;9.148;2022-07-09T14:48:51;30.30;36.60
1283;DHT22;634;48.810;9.148;2022-07-09T14:51:20;30.30;36.80
1283;DHT22;634;48.810;9.148;2022-07-09T14:53:50;30.20;36.50
1283;DHT22;634;48.810;9.148;2022-07-09T14:56:22;29.90;36.40
1283;DHT22;634;48.810;9.148;2022-07-09T14:58:54;29.90;36.70
1283;DHT22;634;48.810;9.148;2022-07-09T15:01:24;30.00;37.00
1283;DHT22;634;48.810;9.148;2022-07-09T15:03:56;30.10;37.00
1283;DHT22;634;48.810;9.148;2022-07-09T15:06:25;30.00;37.10
1283;DHT22;634;48.810;9.148;2022-07-09T15:08:55;29.70;37.30
1283;DHT22;634;48.810;9.148;2022-07-09T15:11:24;29.60;37.50
1283;DHT22;634;48.810;9.148;2022-07-09T15:13:57;29.50;37.40
1283;DHT22;634;48.810;9.148;2022-07-09T15:16:26;29.40;37.40
1283;DHT22;634;48.810;9.148;2022-07-09T15:18:59;29.30;37.80
1283;DHT22;634;48.810;9.148;2022-07-09T15:21:31;29.10;38.20
1283;DHT22;634;48.810;9.148;2022-07-09T15:24:01;29.00;38.20
1283;DHT22;634;48.810;9.148;2022-07-09T15:26:30;28.90;38.40
1283;DHT22;634;48.810;9.148;2022-07-09T15:29:05;28.80;38.80
1283;DHT22;634;48.810;9.148;2022-07-09T15:31:35;28.80;38.90
1283;DHT22;634;48.810;9.148;2022-07-09T15:34:07;28.70;39.10
1283;DHT22;634;48.810;9.148;2022-07-09T15:36:37;28.50;39.30
1283;DHT22;634;48.810;9.148;2022-07-09T15:39:06;28.40;39.80
1283;DHT22;634;48.810;9.148;2022-07-09T15:41:36;28.40;40.00
1283;DHT22;634;48.810;9.148;2022-07-09T15:44:10;28.40;40.30
1283;DHT22;634;48.810;9.148;2022-07-09T15:46:41;28.40;40.50
1283;DHT22;634;48.810;9.148;2022-07-09T15:49:13;28.40;41.10
1283;DHT22;634;48.810;9.148;2022-07-09T15:51:46;28.30;41.20
1283;DHT22;634;48.810;9.148;2022-07-09T15:54:16;28.20;41.40
1283;DHT22;634;48.810;9.148;2022-07-09T15:56:48;28.10;41.90
1283;DHT22;634;48.810;9.148;2022-07-09T15:59:22;28.00;42.20
1283;DHT22;634;48.810;9.148;2022-07-09T16:01:54;28.20;42.20
1283;DHT22;634;48.810;9.148;2022-07-09T16:04:23;28.20;42.20
1283;DHT22;634;48.810;9.148;2022-07-09T16:06:55;28.10;42.20
1283;DHT22;634;48.810;9.148;2022-07-09T16:09:24;28.10;42.10
1283;DHT22;634;48.810;9.148;2022-07-09T16:11:56;28.10;42.40
1283;DHT22;634;48.810;9.148;2022-07-09T16:14:45;28.10;42.10
1283;DHT22;634;48.810;9.148;2022-07-09T16:17:15;28.20;41.70
1283;DHT22;634;48.810;9.148;2022-07-09T16:19:45;28.20;41.70
1283;DHT22;634;48.810;9.148;2022-07-09T16:22:18;28.20;41.70
1283;DHT22;634;48.810;9.148;2022-07-09T16:24:50;28.10;41.50
1283;DHT22;634;48.810;9.148;2022-07-09T16:27:22;28.10;42.00
1283;DHT22;634;48.810;9.148;2022-07-09T16:29:55;28.00;41.80
1283;DHT22;634;48.810;9.148;2022-07-09T16:32:26;28.00;42.10
1283;DHT22;634;48.810;9.148;2022-07-09T16:34:58;27.80;42.60
1283;DHT22;634;48.810;9.148;2022-07-09T16:37:27;27.70;42.90
1283;DHT22;634;48.810;9.148;2022-07-09T16:40:00;27.70;43.20
1283;DHT22;634;48.810;9.148;2022-07-09T16:42:29;27.60;44.00
1283;DHT22;634;48.810;9.148;2022-07-09T16:45:02;27.50;43.90